createdAt,value
2023-09-08T00:01:58.462Z,79.33
2023-09-08T00:32:01.368Z,79.89
2023-09-08T01:02:06.012Z,80.96
2023-09-08T01:32:09.006Z,81.88
2023-09-08T02:02:13.140Z,82.54
2023-09-08T02:32:16.364Z,82.95
2023-09-08T03:02:19.700Z,83.87
2023-09-08T03:32:23.547Z,84.73
2023-09-08T04:02:28.372Z,84.78
2023-09-08T04:32:31.746Z,85.89
2023-09-08T05:02:36.755Z,87.08
2023-09-08T05:32:40.159Z,88.28
2023-09-08T06:02:43.589Z,88.91
2023-09-08T06:32:47.502Z,88.80
2023-09-08T07:02:50.914Z,87.86
2023-09-08T07:32:54.965Z,85.27
2023-09-08T08:02:58.204Z,80.40
2023-09-08T08:33:02.279Z,76.37
2023-09-08T09:03:14.768Z,70.92
2023-09-08T09:33:19.212Z,65.61
2023-09-08T10:03:23.585Z,62.26
2023-09-08T10:33:26.633Z,55.46
2023-09-08T11:03:30.680Z,53.97
2023-09-08T11:33:33.896Z,51.63
2023-09-08T12:03:38.835Z,49.05
2023-09-08T12:33:41.797Z,47.83
2023-09-08T13:03:45.828Z,45.49
2023-09-08T13:33:48.717Z,45.02
2023-09-08T14:33:58.737Z,44.69
2023-09-08T15:04:02.760Z,45.11
2023-09-08T15:34:06.004Z,41.51
2023-09-08T16:04:09.347Z,46.32
2023-09-08T16:34:12.855Z,51.34
2023-09-08T17:04:17.223Z,55.62
2023-09-08T17:34:21.093Z,58.53
2023-09-08T18:04:25.250Z,61.69
2023-09-08T18:34:28.595Z,62.99
2023-09-08T19:04:31.913Z,65.31
2023-09-08T19:34:34.803Z,67.37
2023-09-08T20:04:39.436Z,69.16
2023-09-08T20:34:42.396Z,70.73
2023-09-08T21:04:47.411Z,72.11
2023-09-08T21:34:50.297Z,74.23
2023-09-08T22:04:53.812Z,75.16
2023-09-08T22:34:56.899Z,76.51
2023-09-08T23:05:01.499Z,77.59
2023-09-08T23:35:04.571Z,78.85
